createdAt,value
2022-11-29T00:01:17.952Z,17.65
2022-11-29T00:03:45.050Z,16.40
2022-11-29T00:06:17.395Z,16.08
2022-11-29T00:08:45.015Z,16.02
2022-11-29T00:11:35.317Z,14.73
2022-11-29T00:14:02.325Z,14.15
2022-11-29T00:16:29.292Z,16.48
2022-11-29T00:18:56.112Z,15.15
2022-11-29T00:21:22.911Z,15.07
2022-11-29T00:23:49.777Z,15.47
2022-11-29T00:26:16.749Z,14.35
2022-11-29T00:28:43.586Z,15.43
2022-11-29T00:31:22.040Z,15.18
2022-11-29T00:33:49.369Z,13.63
2022-11-29T00:36:16.986Z,14.23
2022-11-29T00:38:44.160Z,14.43
2022-11-29T00:41:11.070Z,15.00
2022-11-29T00:43:38.398Z,14.77
2022-11-29T00:46:05.843Z,14.73
2022-11-29T00:48:32.757Z,14.73
2022-11-29T00:50:59.592Z,15.85
2022-11-29T00:53:26.384Z,15.57
2022-11-29T00:55:54.182Z,14.57
2022-11-29T00:58:21.534Z,15.55
2022-11-29T01:00:48.990Z,16.33
2022-11-29T01:03:17.004Z,16.50
2022-11-29T01:05:44.742Z,17.38
2022-11-29T01:08:12.668Z,16.67
2022-11-29T01:10:40.164Z,16.85
2022-11-29T01:13:07.896Z,16.77
2022-11-29T01:15:34.649Z,19.35
2022-11-29T01:18:01.561Z,16.27
2022-11-29T01:20:28.605Z,17.33
2022-11-29T01:22:55.443Z,16.45
2022-11-29T01:25:22.402Z,16.47
2022-11-29T01:27:49.223Z,17.60
2022-11-29T01:30:16.042Z,16.95
2022-11-29T01:32:42.904Z,17.35
2022-11-29T01:35:09.780Z,17.25
2022-11-29T01:37:36.673Z,17.97
2022-11-29T01:40:04.004Z,17.65
2022-11-29T01:42:30.881Z,18.63
2022-11-29T01:45:12.723Z,19.33
2022-11-29T01:47:44.695Z,17.20
2022-11-29T01:50:11.768Z,18.70
2022-11-29T01:52:39.114Z,17.75
2022-11-29T01:55:07.553Z,17.33
2022-11-29T01:57:36.601Z,15.90
2022-11-29T02:00:14.559Z,16.42
2022-11-29T02:02:56.292Z,15.77
2022-11-29T02:05:24.596Z,15.43
2022-11-29T02:07:54.332Z,16.48
2022-11-29T02:10:32.894Z,16.73
2022-11-29T02:13:32.552Z,16.30
2022-11-29T02:16:13.064Z,16.63
2022-11-29T02:18:52.299Z,17.75
2022-11-29T02:21:28.134Z,17.92
2022-11-29T02:24:08.954Z,17.05
2022-11-29T02:26:53.774Z,17.75
2022-11-29T02:29:23.270Z,16.90
2022-11-29T02:32:17.813Z,18.50
2022-11-29T02:34:54.261Z,18.25
2022-11-29T02:37:24.088Z,19.50
2022-11-29T02:40:18.164Z,18.27
2022-11-29T02:43:08.062Z,19.13
2022-11-29T02:45:43.744Z,18.02
2022-11-29T02:48:29.374Z,17.65
2022-11-29T02:51:08.346Z,17.85
2022-11-29T02:53:43.994Z,17.38
2022-11-29T02:56:22.646Z,17.33
2022-11-29T02:59:15.663Z,17.35
2022-11-29T03:02:02.494Z,18.20
2022-11-29T03:04:48.049Z,17.67
2022-11-29T03:07:35.754Z,20.20
2022-11-29T03:10:29.046Z,17.87
2022-11-29T03:12:56.528Z,18.20
2022-11-29T03:15:34.324Z,19.58
2022-11-29T03:18:20.479Z,17.85
2022-11-29T03:21:18.460Z,17.60
2022-11-29T03:23:50.141Z,16.93
2022-11-29T03:26:41.811Z,17.98
2022-11-29T03:29:27.414Z,18.02
2022-11-29T03:32:17.680Z,18.60
2022-11-29T03:34:56.960Z,18.02
2022-11-29T03:37:38.676Z,17.23
2022-11-29T03:40:10.473Z,17.73
2022-11-29T03:42:48.930Z,16.35
2022-11-29T03:45:40.596Z,19.23
2022-11-29T03:48:30.289Z,16.70
2022-11-29T03:51:03.620Z,15.80
2022-11-29T03:53:48.001Z,17.02
2022-11-29T03:56:41.475Z,17.52
2022-11-29T03:59:33.971Z,17.73
2022-11-29T04:02:03.911Z,16.25
2022-11-29T04:04:33.524Z,14.53
2022-11-29T04:07:35.721Z,15.85
2022-11-29T04:10:36.369Z,16.00
2022-11-29T04:13:23.132Z,16.60
2022-11-29T04:16:21.012Z,17.23
2022-11-29T04:19:18.313Z,17.07
2022-11-29T04:22:12.929Z,18.35
2022-11-29T04:25:09.313Z,17.13
2022-11-29T04:28:13.729Z,20.23
2022-11-29T04:31:08.279Z,18.63
2022-11-29T04:33:56.469Z,17.80
2022-11-29T04:36:47.730Z,17.67
2022-11-29T04:39:31.618Z,17.65
2022-11-29T04:42:24.748Z,16.17
2022-11-29T04:45:09.058Z,16.23
2022-11-29T04:48:06.745Z,17.20
2022-11-29T04:50:57.466Z,16.15
2022-11-29T04:53:47.846Z,17.00
2022-11-29T04:56:28.661Z,15.40
2022-11-29T04:59:02.890Z,16.23
2022-11-29T05:01:38.973Z,17.73
2022-11-29T05:04:27.883Z,18.00
2022-11-29T05:07:19.227Z,15.48
2022-11-29T05:10:30.609Z,15.25
2022-11-29T05:13:11.622Z,16.17
2022-11-29T05:15:58.649Z,16.53
2022-11-29T05:18:53.677Z,16.15
2022-11-29T05:21:50.843Z,16.55
2022-11-29T05:24:45.666Z,14.57
2022-11-29T05:27:32.260Z,17.27
2022-11-29T05:30:22.874Z,15.77
2022-11-29T05:33:11.587Z,17.60
2022-11-29T05:36:06.716Z,17.38
2022-11-29T05:38:54.729Z,17.23
2022-11-29T05:41:35.508Z,16.10
2022-11-29T05:44:25.854Z,14.03
2022-11-29T05:47:02.096Z,15.80
2022-11-29T05:49:57.239Z,14.82
2022-11-29T05:52:56.468Z,13.43
2022-11-29T05:55:34.761Z,14.13
2022-11-29T05:58:17.563Z,13.87
2022-11-29T06:00:59.636Z,13.65
2022-11-29T06:03:40.609Z,14.77
2022-11-29T06:06:16.833Z,14.35
2022-11-29T06:09:04.061Z,14.65
2022-11-29T06:11:46.407Z,14.60
2022-11-29T06:14:44.461Z,14.10
2022-11-29T06:17:41.582Z,16.70
2022-11-29T06:20:36.153Z,15.75
2022-11-29T06:23:13.726Z,13.35
2022-11-29T06:26:04.040Z,15.37
2022-11-29T06:28:49.601Z,14.20
2022-11-29T06:31:34.820Z,14.23
2022-11-29T06:34:20.348Z,15.50
2022-11-29T06:37:11.926Z,14.10
2022-11-29T06:39:38.903Z,13.83
2022-11-29T06:42:05.672Z,14.93
2022-11-29T06:44:32.740Z,15.25
2022-11-29T06:47:09.328Z,13.57
2022-11-29T06:50:03.033Z,15.23
2022-11-29T06:53:16.762Z,15.40
2022-11-29T06:56:08.294Z,14.30
2022-11-29T06:58:44.703Z,13.30
2022-11-29T07:01:32.754Z,14.68
2022-11-29T07:04:07.357Z,13.93
2022-11-29T07:06:35.649Z,14.23
2022-11-29T07:09:10.669Z,14.45
2022-11-29T07:11:38.041Z,13.95
2022-11-29T07:14:05.211Z,14.50
2022-11-29T07:16:47.136Z,14.57
2022-11-29T07:19:25.895Z,13.67
2022-11-29T07:22:15.488Z,14.32
2022-11-29T07:25:03.601Z,14.45
2022-11-29T07:27:47.304Z,13.02
2022-11-29T07:30:20.860Z,12.75
2022-11-29T07:33:26.964Z,13.57
2022-11-29T07:36:18.613Z,12.18
2022-11-29T07:38:55.567Z,11.88
2022-11-29T07:41:45.805Z,12.95
2022-11-29T07:44:30.429Z,12.50
2022-11-29T07:46:57.227Z,11.67
2022-11-29T07:49:24.074Z,11.95
2022-11-29T07:51:51.006Z,12.48
2022-11-29T07:54:19.765Z,12.40
2022-11-29T07:56:46.717Z,11.63
2022-11-29T07:59:14.544Z,11.77
2022-11-29T08:01:41.806Z,11.02
2022-11-29T08:04:09.017Z,11.52
2022-11-29T08:06:36.750Z,11.57
2022-11-29T08:09:04.616Z,12.25
2022-11-29T08:11:31.402Z,10.73
2022-11-29T08:14:03.450Z,11.10
2022-11-29T08:16:30.383Z,10.82
2022-11-29T08:18:57.166Z,11.20
2022-11-29T08:21:23.993Z,12.18
2022-11-29T08:23:51.486Z,11.50
2022-11-29T08:26:19.528Z,11.63
2022-11-29T08:28:51.820Z,11.43
2022-11-29T08:31:19.947Z,12.05
2022-11-29T08:33:46.996Z,10.95
2022-11-29T08:36:16.942Z,10.30
2022-11-29T08:38:44.022Z,11.13
2022-11-29T08:41:13.115Z,10.75
2022-11-29T08:43:40.284Z,10.60
2022-11-29T08:46:07.387Z,10.77
2022-11-29T08:48:35.540Z,10.27
2022-11-29T08:51:02.763Z,10.48
2022-11-29T08:53:41.680Z,11.30
2022-11-29T08:56:53.398Z,11.00
2022-11-29T08:59:00.522Z,10.73
2022-11-29T09:01:29.107Z,10.83
2022-11-29T09:03:59.661Z,11.48
2022-11-29T09:06:28.986Z,11.02
2022-11-29T09:08:56.855Z,10.52
2022-11-29T09:11:26.352Z,10.63
2022-11-29T09:13:56.060Z,10.10
2022-11-29T09:16:25.705Z,9.95
2022-11-29T09:18:55.744Z,11.40
2022-11-29T09:21:25.045Z,10.00
2022-11-29T09:23:58.765Z,9.75
2022-11-29T09:26:32.012Z,9.57
2022-11-29T09:29:03.917Z,10.40
2022-11-29T09:31:33.442Z,9.65
2022-11-29T09:34:00.421Z,9.38
2022-11-29T09:36:29.475Z,9.55
2022-11-29T09:38:57.453Z,10.03
2022-11-29T09:42:22.104Z,9.85
2022-11-29T09:45:01.384Z,9.65
2022-11-29T09:47:37.420Z,9.43
2022-11-29T09:50:33.670Z,9.52
2022-11-29T09:53:38.153Z,9.70
2022-11-29T09:56:33.702Z,9.35
2022-11-29T09:59:09.756Z,10.38
2022-11-29T10:01:45.058Z,10.30
2022-11-29T10:04:19.202Z,10.77
2022-11-29T10:06:56.964Z,11.23
2022-11-29T10:09:37.091Z,10.55
2022-11-29T10:12:18.989Z,10.38
2022-11-29T10:14:49.335Z,9.98
2022-11-29T10:17:53.897Z,10.38
2022-11-29T10:20:24.446Z,11.80
2022-11-29T10:23:00.143Z,10.57
2022-11-29T10:25:48.726Z,11.13
2022-11-29T10:28:30.614Z,10.30
2022-11-29T10:31:06.039Z,9.73
2022-11-29T10:33:37.122Z,9.57
2022-11-29T10:36:21.602Z,9.63
2022-11-29T10:38:50.310Z,9.55
2022-11-29T10:41:22.189Z,9.50
2022-11-29T10:43:51.305Z,9.90
2022-11-29T10:46:36.080Z,9.43
2022-11-29T10:49:10.360Z,10.65
2022-11-29T10:51:37.269Z,8.82
2022-11-29T10:54:43.938Z,8.93
2022-11-29T10:57:17.725Z,8.85
2022-11-29T10:59:58.557Z,9.43
2022-11-29T11:02:25.669Z,9.40
2022-11-29T11:04:52.713Z,8.98
2022-11-29T11:07:29.519Z,8.90
2022-11-29T11:09:57.975Z,9.45
2022-11-29T11:12:30.963Z,9.60
2022-11-29T11:15:25.891Z,9.15
2022-11-29T11:18:03.812Z,9.48
2022-11-29T11:20:37.771Z,8.60
2022-11-29T11:23:22.679Z,9.40
2022-11-29T11:25:57.186Z,8.67
2022-11-29T11:28:35.608Z,9.13
2022-11-29T11:31:08.284Z,9.20
2022-11-29T11:33:41.124Z,9.45
2022-11-29T11:36:13.045Z,9.20
2022-11-29T11:38:49.577Z,9.10
2022-11-29T11:41:51.915Z,9.95
2022-11-29T11:44:46.458Z,10.32
2022-11-29T11:47:18.615Z,9.85
2022-11-29T11:49:50.364Z,10.05
2022-11-29T11:52:22.737Z,9.77
2022-11-29T11:54:57.406Z,9.90
2022-11-29T11:57:26.055Z,9.60
2022-11-29T11:59:56.055Z,10.23
2022-11-29T12:02:37.205Z,10.07
2022-11-29T12:05:10.384Z,10.47
2022-11-29T12:08:07.701Z,10.98
2022-11-29T12:10:37.717Z,10.77
2022-11-29T12:13:05.235Z,10.15
2022-11-29T12:15:38.241Z,10.77
2022-11-29T12:18:28.256Z,11.33
2022-11-29T12:21:07.584Z,10.65
2022-11-29T12:23:55.314Z,10.05
2022-11-29T12:26:55.236Z,10.88
2022-11-29T12:29:19.123Z,10.73
2022-11-29T12:32:25.341Z,10.60
2022-11-29T12:35:26.205Z,10.00
2022-11-29T12:38:26.666Z,10.70
2022-11-29T12:41:05.792Z,9.43
2022-11-29T12:43:47.683Z,9.85
2022-11-29T12:46:20.579Z,8.90
2022-11-29T12:48:50.173Z,9.75
2022-11-29T12:51:39.947Z,10.27
2022-11-29T12:54:33.314Z,10.00
2022-11-29T12:57:12.134Z,10.15
2022-11-29T13:00:01.096Z,10.97
2022-11-29T13:02:58.748Z,10.55
2022-11-29T13:05:32.078Z,10.25
2022-11-29T13:08:27.030Z,9.90
2022-11-29T13:11:34.693Z,10.15
2022-11-29T13:14:41.600Z,10.07
2022-11-29T13:17:03.686Z,10.05
2022-11-29T13:19:56.697Z,10.50
2022-11-29T13:22:43.735Z,10.90
2022-11-29T13:25:29.184Z,10.10
2022-11-29T13:28:03.298Z,10.43
2022-11-29T13:30:30.432Z,10.27
2022-11-29T13:33:03.460Z,10.18
2022-11-29T13:35:47.119Z,10.18
2022-11-29T13:38:22.836Z,11.48
2022-11-29T13:41:21.587Z,10.23
2022-11-29T13:44:20.140Z,10.45
2022-11-29T13:47:02.855Z,10.38
2022-11-29T13:49:59.863Z,11.07
2022-11-29T13:52:33.818Z,11.50
2022-11-29T13:55:31.216Z,10.70
2022-11-29T13:58:19.652Z,10.70
2022-11-29T14:00:46.488Z,10.70
2022-11-29T14:03:29.064Z,11.10
2022-11-29T14:06:01.920Z,11.13
2022-11-29T14:09:17.426Z,10.57
2022-11-29T14:11:43.020Z,10.52
2022-11-29T14:14:15.798Z,11.50
2022-11-29T14:16:42.486Z,11.85
2022-11-29T14:19:09.212Z,11.60
2022-11-29T14:22:05.491Z,11.30
2022-11-29T14:24:32.237Z,10.52
2022-11-29T14:27:08.062Z,11.18
2022-11-29T14:29:50.023Z,12.93
2022-11-29T14:32:42.793Z,11.65
2022-11-29T14:35:12.697Z,12.03
2022-11-29T14:37:58.796Z,11.93
2022-11-29T14:40:28.804Z,11.88
2022-11-29T14:42:55.906Z,11.73
2022-11-29T14:45:24.836Z,11.13
2022-11-29T14:47:51.791Z,12.00
2022-11-29T14:50:33.992Z,11.73
2022-11-29T14:53:01.394Z,12.57
2022-11-29T14:55:31.935Z,12.30
2022-11-29T14:58:02.173Z,12.23
2022-11-29T15:00:36.496Z,13.30
2022-11-29T15:03:12.977Z,12.77
2022-11-29T15:06:11.433Z,12.98
2022-11-29T15:08:55.806Z,13.50
2022-11-29T15:11:52.752Z,12.18
2022-11-29T15:14:42.371Z,12.67
2022-11-29T15:17:46.983Z,12.57
2022-11-29T15:20:37.588Z,12.80
2022-11-29T15:23:09.222Z,13.23
2022-11-29T15:25:36.633Z,13.75
2022-11-29T15:28:05.918Z,14.87
2022-11-29T15:30:39.079Z,16.23
2022-11-29T15:33:08.889Z,13.95
2022-11-29T15:35:36.662Z,13.68
2022-11-29T15:38:03.510Z,13.70
2022-11-29T15:40:35.584Z,13.83
2022-11-29T15:43:40.086Z,13.23
2022-11-29T15:46:19.242Z,13.07
2022-11-29T15:48:46.025Z,13.57
2022-11-29T15:51:30.946Z,14.07
2022-11-29T15:54:12.151Z,13.53
2022-11-29T15:56:52.939Z,12.75
2022-11-29T15:59:42.488Z,13.40
2022-11-29T16:02:29.616Z,13.00
2022-11-29T16:05:00.193Z,13.20
2022-11-29T16:07:32.175Z,12.83
2022-11-29T16:10:10.529Z,13.38
2022-11-29T16:13:04.945Z,13.32
2022-11-29T16:15:39.250Z,13.88
2022-11-29T16:18:13.655Z,13.88
2022-11-29T16:20:40.870Z,13.97
2022-11-29T16:23:15.154Z,16.08
2022-11-29T16:26:04.372Z,15.35
2022-11-29T16:28:41.726Z,16.23
2022-11-29T16:31:11.406Z,15.10
2022-11-29T16:33:42.159Z,15.27
2022-11-29T16:36:23.869Z,13.55
2022-11-29T16:38:55.102Z,12.27
2022-11-29T16:41:29.895Z,13.93
2022-11-29T16:43:57.991Z,14.13
2022-11-29T16:46:27.837Z,13.53
2022-11-29T16:49:22.615Z,11.57
2022-11-29T16:51:51.218Z,10.63
2022-11-29T16:54:24.308Z,12.98
2022-11-29T16:56:52.765Z,12.13
2022-11-29T16:59:26.851Z,12.03
2022-11-29T17:01:56.071Z,12.98
2022-11-29T17:04:24.656Z,11.15
2022-11-29T17:06:54.103Z,11.40
2022-11-29T17:09:32.565Z,12.15
2022-11-29T17:12:04.483Z,10.50
2022-11-29T17:14:37.438Z,11.02
2022-11-29T17:17:06.084Z,11.02
2022-11-29T17:19:32.900Z,10.52
2022-11-29T17:21:59.697Z,10.15
2022-11-29T17:24:26.668Z,11.27
2022-11-29T17:26:53.494Z,10.27
2022-11-29T17:29:20.349Z,9.77
2022-11-29T17:31:50.315Z,9.88
2022-11-29T17:34:17.625Z,10.30
2022-11-29T17:36:45.185Z,10.27
2022-11-29T17:39:11.996Z,9.82
2022-11-29T17:41:38.775Z,10.73
2022-11-29T17:44:05.556Z,10.18
2022-11-29T17:46:34.942Z,10.43
2022-11-29T17:49:04.097Z,10.13
2022-11-29T17:54:17.969Z,10.88
2022-11-29T17:56:44.848Z,12.27
2022-11-29T17:59:11.803Z,10.88
2022-11-29T18:01:38.812Z,10.03
2022-11-29T18:04:06.769Z,10.45
2022-11-29T18:06:39.519Z,10.63
2022-11-29T18:09:08.407Z,11.13
2022-11-29T18:11:47.590Z,11.13
2022-11-29T18:14:21.297Z,8.97
2022-11-29T18:16:48.316Z,9.57
2022-11-29T18:19:18.184Z,10.27
2022-11-29T18:21:45.280Z,10.82
2022-11-29T18:24:12.087Z,10.90
2022-11-29T18:26:39.724Z,11.30
2022-11-29T18:29:07.549Z,11.00
2022-11-29T18:31:37.234Z,10.60
2022-11-29T18:34:07.186Z,11.18
2022-11-29T18:36:36.887Z,10.40
2022-11-29T18:39:10.085Z,9.37
2022-11-29T18:41:37.820Z,8.00
2022-11-29T18:44:10.441Z,7.55
2022-11-29T18:46:38.882Z,7.53
2022-11-29T18:49:09.684Z,8.55
2022-11-29T18:51:38.192Z,8.57
2022-11-29T18:54:06.507Z,8.65
2022-11-29T18:56:35.168Z,8.95
2022-11-29T18:59:10.064Z,9.70
2022-11-29T19:01:41.204Z,8.90
2022-11-29T19:04:13.710Z,9.00
2022-11-29T19:06:41.483Z,8.85
2022-11-29T19:09:13.288Z,9.98
2022-11-29T19:11:40.764Z,10.23
2022-11-29T19:14:13.427Z,9.80
2022-11-29T19:16:45.518Z,9.77
2022-11-29T19:19:12.665Z,9.63
2022-11-29T19:21:40.067Z,9.82
2022-11-29T19:24:13.551Z,10.10
2022-11-29T19:26:41.123Z,9.77
2022-11-29T19:29:07.891Z,9.57
2022-11-29T19:31:34.593Z,9.40
2022-11-29T19:34:01.842Z,10.07
2022-11-29T19:36:30.666Z,9.50
2022-11-29T19:39:01.659Z,9.70
2022-11-29T19:41:31.050Z,9.83
2022-11-29T19:43:59.352Z,10.32
2022-11-29T19:46:29.722Z,10.13
2022-11-29T19:48:58.317Z,10.13
2022-11-29T19:51:26.707Z,10.40
2022-11-29T19:53:55.212Z,9.93
2022-11-29T19:56:23.111Z,10.27
2022-11-29T19:58:51.257Z,10.65
2022-11-29T20:01:22.464Z,11.88
2022-11-29T20:03:49.941Z,12.05
2022-11-29T20:06:17.855Z,11.60
2022-11-29T20:08:45.321Z,10.63
2022-11-29T20:11:21.136Z,11.60
2022-11-29T20:13:53.667Z,10.93
2022-11-29T20:16:22.472Z,10.52
2022-11-29T20:18:51.391Z,10.47
2022-11-29T20:21:20.981Z,9.75
2022-11-29T20:23:48.775Z,10.38
2022-11-29T20:26:20.489Z,10.73
2022-11-29T20:28:47.906Z,10.73
2022-11-29T20:31:21.309Z,10.70
2022-11-29T20:33:49.478Z,11.10
2022-11-29T20:36:44.033Z,10.68
2022-11-29T20:39:49.795Z,10.38
2022-11-29T20:42:28.911Z,10.55
2022-11-29T20:44:58.918Z,9.90
2022-11-29T20:47:40.291Z,10.25
2022-11-29T20:50:13.402Z,10.07
2022-11-29T20:52:54.938Z,10.25
2022-11-29T20:55:21.804Z,9.90
2022-11-29T20:57:49.834Z,9.87
2022-11-29T21:00:17.133Z,10.43
2022-11-29T21:02:44.121Z,10.52
2022-11-29T21:05:11.281Z,10.57
2022-11-29T21:07:38.183Z,10.63
2022-11-29T21:10:05.951Z,11.20
2022-11-29T21:12:33.387Z,11.00
2022-11-29T21:15:00.591Z,11.40
2022-11-29T21:17:33.427Z,11.27
2022-11-29T21:20:01.210Z,11.45
2022-11-29T21:22:38.761Z,11.30
2022-11-29T21:25:14.076Z,11.70
2022-11-29T21:27:45.247Z,10.82
2022-11-29T21:30:22.283Z,11.30
2022-11-29T21:32:51.179Z,11.48
2022-11-29T21:35:18.605Z,11.90
2022-11-29T21:37:47.851Z,11.57
2022-11-29T21:40:15.379Z,11.52
2022-11-29T21:42:42.317Z,11.70
2022-11-29T21:45:15.231Z,12.10
2022-11-29T21:47:43.873Z,11.77
2022-11-29T21:50:12.496Z,11.80
2022-11-29T21:52:39.692Z,11.70
2022-11-29T21:55:06.816Z,11.40
2022-11-29T21:57:33.576Z,11.63
2022-11-29T22:00:00.294Z,11.43
2022-11-29T22:02:27.126Z,11.85
2022-11-29T22:04:53.934Z,11.30
2022-11-29T22:07:20.887Z,12.32
2022-11-29T22:09:47.729Z,12.20
2022-11-29T22:12:33.273Z,12.40
2022-11-29T22:15:01.198Z,12.60
2022-11-29T22:17:27.965Z,12.07
2022-11-29T22:19:54.768Z,12.40
2022-11-29T22:22:21.691Z,11.88
2022-11-29T22:24:48.721Z,11.67
2022-11-29T22:27:18.131Z,12.23
2022-11-29T22:29:45.145Z,12.75
2022-11-29T22:32:11.920Z,13.25
2022-11-29T22:34:38.766Z,13.02
2022-11-29T22:37:06.047Z,12.80
2022-11-29T22:39:32.930Z,13.10
2022-11-29T22:41:59.741Z,13.25
2022-11-29T22:44:26.465Z,12.80
2022-11-29T22:46:53.534Z,13.00
2022-11-29T22:49:20.451Z,12.87
2022-11-29T22:51:47.323Z,12.88
2022-11-29T22:54:18.037Z,12.65
2022-11-29T22:56:45.703Z,12.27
2022-11-29T22:59:12.777Z,13.10
2022-11-29T23:01:41.351Z,11.93
2022-11-29T23:04:10.077Z,13.13
2022-11-29T23:06:40.995Z,12.23
2022-11-29T23:09:18.894Z,12.32
2022-11-29T23:11:50.777Z,12.50
2022-11-29T23:14:18.836Z,12.13
2022-11-29T23:16:46.038Z,12.43
2022-11-29T23:19:16.187Z,12.15
2022-11-29T23:21:45.517Z,12.05
2022-11-29T23:24:13.686Z,11.98
2022-11-29T23:26:43.932Z,12.30
2022-11-29T23:29:14.235Z,12.10
2022-11-29T23:31:41.389Z,11.55
2022-11-29T23:34:08.878Z,11.85
2022-11-29T23:36:35.748Z,11.75
2022-11-29T23:39:05.138Z,12.33
2022-11-29T23:41:32.126Z,11.70
2022-11-29T23:43:59.785Z,12.05
2022-11-29T23:46:26.729Z,11.98
2022-11-29T23:48:53.508Z,11.95
2022-11-29T23:51:20.644Z,12.57
2022-11-29T23:53:54.029Z,12.45
2022-11-29T23:56:21.672Z,12.50
2022-11-29T23:58:48.922Z,12.48
